Time;durP1;ratioP1;P1;durP2;ratioP2;P2;SDS_P1;SDS_P2;PMS_P1;PMS_P2;Temp;Humidity;BMP_temperature;BMP_pressure;BME280_temperature;BME280_humidity;BME280_pressure;Samples;Min_cycle;Max_cycle;Signal;HPM_P1;HPM_P2
2023/03/23 00:01:36;;;;;;;30.50;17.40;;;;;;;10.21;96.60;99761.55;213437;1294;139499;-87
2023/03/23 00:06:37;;;;;;;34.80;16.90;;;;;;;10.20;96.81;99759.72;213816;1295;139415;-87
2023/03/23 00:11:38;;;;;;;29.10;15.80;;;;;;;10.16;96.55;99756.02;213187;1294;139244;-87
2023/03/23 00:16:40;;;;;;;31.50;16.10;;;;;;;10.13;96.73;99750.05;213648;1293;139024;-86
2023/03/23 00:21:42;;;;;;;30.10;16.10;;;;;;;10.11;96.67;99755.31;213152;1294;139824;-87
2023/03/23 00:26:48;;;;;;;31.00;14.30;;;;;;;10.08;96.60;99746.19;213920;1289;139203;-87
2023/03/23 00:31:49;;;;;;;26.60;14.60;;;;;;;10.03;96.73;99746.16;213473;1289;139342;-87
2023/03/23 00:36:53;;;;;;;32.00;16.70;;;;;;;9.99;96.75;99742.45;214026;1294;139094;-86
2023/03/23 00:42:00;;;;;;;33.70;17.60;;;;;;;9.95;96.93;99737.72;213373;1294;139028;-87
2023/03/23 00:47:01;;;;;;;30.60;16.50;;;;;;;9.94;96.77;99740.25;213961;1294;138664;-86
2023/03/23 00:52:04;;;;;;;28.90;16.90;;;;;;;9.91;96.73;99729.85;213224;1292;139117;-86
2023/03/23 00:57:05;;;;;;;30.20;16.30;;;;;;;9.89;96.87;99722.09;213727;1294;140654;-86
2023/03/23 01:02:06;;;;;;;29.70;15.90;;;;;;;9.85;96.90;99709.67;213306;1290;138846;-86
2023/03/23 01:07:08;;;;;;;25.20;15.10;;;;;;;9.82;96.98;99708.02;213961;1293;106565;-86
2023/03/23 01:12:08;;;;;;;33.80;16.10;;;;;;;9.77;97.27;99701.02;213426;1295;138706;-86
2023/03/23 01:17:09;;;;;;;27.60;14.40;;;;;;;9.74;97.08;99703.83;213915;1289;140985;-86
2023/03/23 01:22:09;;;;;;;27.20;14.70;;;;;;;9.74;97.20;99706.50;213450;1289;139230;-86
2023/03/23 01:27:10;;;;;;;26.10;13.40;;;;;;;9.71;97.16;99697.54;213817;1299;138816;-87
2023/03/23 01:32:10;;;;;;;26.40;14.10;;;;;;;9.70;97.40;99688.27;213390;1289;139120;-86
2023/03/23 01:37:10;;;;;;;27.20;13.30;;;;;;;9.69;97.39;99682.61;213979;1288;97929;-85
2023/03/23 01:42:12;;;;;;;25.00;12.10;;;;;;;9.65;97.62;99676.33;213434;1295;138699;-85
2023/03/23 01:47:12;;;;;;;30.80;13.20;;;;;;;9.63;97.50;99680.48;213825;1293;138672;-86
2023/03/23 01:52:26;;;;;;;23.50;12.20;;;;;;;9.64;97.72;99674.52;213493;1289;138636;-86
2023/03/23 01:57:29;;;;;;;22.30;11.70;;;;;;;9.65;97.70;99668.80;213912;1294;138720;-85
2023/03/23 02:02:30;;;;;;;24.30;11.50;;;;;;;9.65;97.62;99662.05;213364;1292;139265;-87
2023/03/23 02:07:31;;;;;;;22.30;10.40;;;;;;;9.65;97.59;99649.80;214049;1293;97939;-86
2023/03/23 02:12:32;;;;;;;22.10;10.80;;;;;;;9.64;97.60;99642.89;213334;1293;138969;-86
2023/03/23 02:17:49;;;;;;;22.10;10.40;;;;;;;9.65;97.74;99635.44;213775;1295;138783;-86
2023/03/23 02:22:56;;;;;;;;;;;;;;;9.69;97.58;99626.96;213262;1295;139081;-86
2023/03/23 02:28:19;;;;;;;19.00;9.40;;;;;;;9.68;97.42;99615.83;213794;1292;125507;-86
2023/03/23 02:33:37;;;;;;;20.70;10.40;;;;;;;9.70;97.27;99608.36;213267;1290;139184;-86
2023/03/23 02:38:50;;;;;;;25.10;11.60;;;;;;;9.68;97.15;99603.97;213663;1289;138911;-85
2023/03/23 02:43:52;;;;;;;18.30;9.30;;;;;;;9.67;97.32;99601.30;213733;1289;139148;-85
2023/03/23 02:48:56;;;;;;;24.10;11.80;;;;;;;9.65;97.27;99598.85;213352;1289;139007;-85
2023/03/23 02:53:58;;;;;;;21.50;10.20;;;;;;;9.62;97.38;99601.77;213921;1294;138584;-86
2023/03/23 02:58:59;;;;;;;22.00;9.20;;;;;;;9.58;97.26;99609.44;213427;1295;141020;-86
2023/03/23 03:04:04;;;;;;;17.00;9.00;;;;;;;9.62;97.03;99612.83;213653;1291;138621;-87
2023/03/23 03:09:14;;;;;;;20.40;9.80;;;;;;;9.69;96.50;99607.33;213481;1289;138617;-85
2023/03/23 03:14:29;;;;;;;20.90;9.10;;;;;;;9.78;96.35;99605.46;213889;1292;139640;-86
2023/03/23 03:19:35;;;;;;;17.50;9.20;;;;;;;9.83;96.03;99599.66;213531;1289;138543;-86
2023/03/23 03:24:37;;;;;;;20.40;10.20;;;;;;;9.86;95.80;99596.29;214437;1289;138438;-87
2023/03/23 03:29:41;;;;;;;17.30;9.20;;;;;;;9.94;95.56;99588.52;213386;1292;139813;-87
2023/03/23 03:34:42;;;;;;;19.40;9.20;;;;;;;10.01;95.22;99585.30;213836;1289;138688;-86
2023/03/23 03:39:43;;;;;;;20.00;10.20;;;;;;;10.06;94.87;99580.85;213343;1294;139366;-88
2023/03/23 03:44:43;;;;;;;19.60;9.50;;;;;;;10.09;94.68;99580.77;213971;1291;139068;-86
2023/03/23 03:49:44;;;;;;;18.00;9.10;;;;;;;10.14;94.32;99577.08;213359;1289;138642;-86
2023/03/23 03:54:44;;;;;;;18.30;8.60;;;;;;;10.20;94.03;99579.73;213873;1294;138521;-87
2023/03/23 03:59:45;;;;;;;15.30;8.40;;;;;;;10.22;93.83;99576.29;213276;1289;139358;-86
2023/03/23 04:04:47;;;;;;;15.40;8.30;;;;;;;10.25;93.80;99575.64;213897;1289;139549;-87
2023/03/23 04:09:48;;;;;;;17.40;7.90;;;;;;;10.28;93.11;99583.50;213116;1291;353890;-87
2023/03/23 04:14:48;;;;;;;14.40;6.90;;;;;;;10.32;93.09;99585.86;213610;1291;139040;-87
2023/03/23 04:19:49;;;;;;;14.90;6.70;;;;;;;10.37;92.81;99580.89;213242;1293;139998;-87
2023/03/23 04:24:51;;;;;;;12.60;6.40;;;;;;;10.41;92.50;99574.98;213854;1291;138731;-87
2023/03/23 04:29:52;;;;;;;12.00;6.20;;;;;;;10.46;92.19;99571.13;213331;1291;139215;-87
2023/03/23 04:34:53;;;;;;;11.90;6.30;;;;;;;10.51;91.98;99567.74;213948;1289;138848;-87
2023/03/23 04:39:59;;;;;;;12.50;6.30;;;;;;;10.56;91.65;99557.67;213249;1289;139157;-87
2023/03/23 04:45:02;;;;;;;11.20;5.50;;;;;;;10.59;91.17;99553.50;213893;1294;139390;-87
2023/03/23 04:50:03;;;;;;;12.60;6.20;;;;;;;10.62;91.27;99552.06;213315;1289;139108;-86
2023/03/23 04:55:05;;;;;;;11.80;5.50;;;;;;;10.66;91.01;99545.29;214048;1288;97998;-87
2023/03/23 05:00:14;;;;;;;11.20;4.90;;;;;;;10.71;90.75;99540.08;213683;1291;138840;-87
2023/03/23 05:05:14;;;;;;;10.90;5.40;;;;;;;10.73;90.85;99541.40;214049;1292;138723;-86
2023/03/23 05:10:16;;;;;;;11.40;5.80;;;;;;;10.77;90.40;99545.23;213815;1292;139551;-87
2023/03/23 05:15:16;;;;;;;14.20;6.50;;;;;;;10.81;90.01;99537.52;214304;1292;138875;-86
2023/03/23 05:20:20;;;;;;;11.20;4.90;;;;;;;10.86;90.15;99528.69;214162;1289;140601;-88
2023/03/23 05:25:20;;;;;;;11.20;5.10;;;;;;;10.89;89.99;99523.48;214252;1290;98018;-89
2023/03/23 05:30:21;;;;;;;11.40;5.00;;;;;;;10.92;89.61;99514.67;213660;1294;139062;-87
2023/03/23 05:35:22;;;;;;;12.20;5.30;;;;;;;10.99;89.13;99508.58;214215;1290;140388;-87
2023/03/23 05:40:25;;;;;;;11.00;5.40;;;;;;;11.07;88.93;99513.25;213631;1292;140276;-86
2023/03/23 05:45:26;;;;;;;12.30;5.70;;;;;;;11.13;88.69;99515.41;214159;1290;140052;-86
2023/03/23 05:50:27;;;;;;;11.90;5.00;;;;;;;11.20;88.46;99516.95;213344;1289;138935;-85
2023/03/23 05:55:28;;;;;;;12.50;5.00;;;;;;;11.26;88.43;99532.41;214335;1289;97947;-86
2023/03/23 06:00:30;;;;;;;11.20;5.30;;;;;;;11.32;88.17;99534.89;213560;1289;139656;-86
2023/03/23 06:05:30;;;;;;;12.10;5.20;;;;;;;11.39;88.10;99527.21;214047;1289;138863;-86
2023/03/23 06:10:32;;;;;;;13.80;4.90;;;;;;;11.47;87.49;99518.57;213616;1288;139653;-86
2023/03/23 06:15:33;;;;;;;13.40;5.10;;;;;;;11.57;87.24;99513.46;213830;1291;139187;-85
2023/03/23 06:20:35;;;;;;;12.60;4.80;;;;;;;11.66;86.99;99506.90;213614;1288;139170;-86
2023/03/23 06:25:35;;;;;;;10.60;5.10;;;;;;;11.73;86.26;99500.38;214023;1292;98065;-86
2023/03/23 06:30:36;;;;;;;15.40;4.70;;;;;;;11.79;86.06;99496.15;213570;1294;139205;-87
2023/03/23 06:35:37;;;;;;;10.40;4.50;;;;;;;11.86;85.63;99500.66;213988;1289;138678;-85
2023/03/23 06:40:38;;;;;;;8.70;3.90;;;;;;;11.93;85.30;99508.39;213577;1289;139076;-85
2023/03/23 06:45:38;;;;;;;9.30;4.80;;;;;;;12.05;84.94;99508.44;214152;1289;140202;-84
2023/03/23 06:50:41;;;;;;;8.80;3.50;;;;;;;12.20;84.50;99513.48;213467;1289;138921;-84
2023/03/23 06:55:43;;;;;;;7.30;3.50;;;;;;;12.35;83.79;99504.66;214138;1291;97995;-87
2023/03/23 07:00:45;;;;;;;9.60;4.00;;;;;;;12.52;83.59;99493.73;213569;1289;139077;-84
2023/03/23 07:05:47;;;;;;;9.30;3.80;;;;;;;12.70;83.07;99503.14;213984;1289;138518;-88
2023/03/23 07:10:52;;;;;;;8.20;3.80;;;;;;;12.87;81.85;99507.10;213478;1291;139359;-87
2023/03/23 07:15:53;;;;;;;10.90;4.20;;;;;;;13.03;81.15;99505.11;214294;1289;138716;-86
2023/03/23 07:20:54;;;;;;;10.60;3.60;;;;;;;13.16;80.36;99513.05;213550;1289;139217;-84
2023/03/23 07:25:54;;;;;;;8.60;3.40;;;;;;;13.33;79.81;99516.61;214320;1291;139178;-85
2023/03/23 07:30:55;;;;;;;7.30;3.20;;;;;;;13.53;79.25;99514.34;213779;1291;139650;-86
2023/03/23 07:35:59;;;;;;;9.30;3.80;;;;;;;13.71;78.88;99519.34;214161;1291;138703;-85
2023/03/23 07:40:59;;;;;;;14.00;4.60;;;;;;;13.86;79.12;99517.34;213376;1289;139639;-85
2023/03/23 07:46:00;;;;;;;9.20;3.40;;;;;;;13.99;78.37;99518.72;213762;1290;138853;-89
2023/03/23 07:51:00;;;;;;;8.90;3.80;;;;;;;14.07;77.35;99517.55;213507;1291;139202;-85
2023/03/23 07:56:02;;;;;;;7.70;3.20;;;;;;;14.15;76.69;99517.39;214057;1289;139292;-85
2023/03/23 08:01:02;;;;;;;7.00;2.90;;;;;;;14.22;76.46;99524.56;213415;1289;138811;-87
2023/03/23 08:06:04;;;;;;;8.70;3.90;;;;;;;14.30;76.00;99524.34;213821;1288;139050;-86
2023/03/23 08:11:05;;;;;;;7.80;2.80;;;;;;;14.37;75.41;99523.03;213426;1290;139531;-85
2023/03/23 08:16:05;;;;;;;8.50;2.50;;;;;;;14.43;75.04;99518.64;213997;1291;138683;-85
2023/03/23 08:21:09;;;;;;;8.00;2.60;;;;;;;14.48;74.59;99521.30;213329;1292;139679;-84
2023/03/23 08:26:10;;;;;;;7.70;2.70;;;;;;;14.53;74.06;99523.02;213870;1288;139225;-86
2023/03/23 08:31:13;;;;;;;8.20;3.50;;;;;;;14.58;73.68;99517.02;213628;1291;138645;-87
2023/03/23 08:36:14;;;;;;;7.00;2.70;;;;;;;14.66;73.37;99510.54;214366;1288;138543;-85
2023/03/23 08:41:14;;;;;;;6.10;2.40;;;;;;;14.76;73.34;99511.27;213595;1289;138956;-88
2023/03/23 08:46:15;;;;;;;11.20;3.40;;;;;;;14.86;72.89;99510.90;214157;1291;138838;-86
2023/03/23 08:51:16;;;;;;;8.90;3.40;;;;;;;14.94;72.83;99517.94;213507;1292;139317;-88
2023/03/23 08:56:16;;;;;;;10.80;3.10;;;;;;;15.02;71.31;99511.26;214047;1289;138763;-85
2023/03/23 09:01:17;;;;;;;7.70;2.80;;;;;;;15.09;71.64;99506.70;213666;1289;137992;-85
2023/03/23 09:06:17;;;;;;;9.80;3.60;;;;;;;15.22;71.55;99514.38;214236;1288;137941;-86
2023/03/23 09:11:18;;;;;;;9.00;5.00;;;;;;;15.40;71.70;99519.15;213399;1289;138366;-84
2023/03/23 09:16:19;;;;;;;12.80;6.10;;;;;;;15.67;70.60;99522.08;213987;1292;138041;-88
2023/03/23 09:21:20;;;;;;;9.30;3.50;;;;;;;16.04;69.77;99529.56;213463;1289;138434;-87
2023/03/23 09:26:20;;;;;;;6.90;3.20;;;;;;;16.38;69.26;99534.24;213936;1289;137990;-86
2023/03/23 09:31:22;;;;;;;5.90;2.10;;;;;;;16.63;68.92;99532.95;213620;1293;138883;-83
2023/03/23 09:36:25;;;;;;;7.60;2.20;;;;;;;16.86;68.62;99534.91;214076;1289;139328;-85
2023/03/23 09:41:55;;;;;;;5.80;2.10;;;;;;;16.91;66.46;99538.10;213472;1289;138617;-85
2023/03/23 09:47:20;;;;;;;5.30;2.00;;;;;;;16.82;66.41;99543.27;213963;1289;138367;-88
2023/03/23 09:52:21;;;;;;;8.40;1.70;;;;;;;16.75;66.25;99552.84;213713;1291;138478;-85
2023/03/23 09:57:31;;;;;;;7.60;2.30;;;;;;;16.63;66.74;99566.45;214082;1291;137972;-84
2023/03/23 10:03:09;;;;;;;6.40;2.50;;;;;;;16.50;67.42;99567.98;213520;1291;138562;-83
2023/03/23 10:08:15;;;;;;;5.90;2.70;;;;;;;16.32;67.51;99583.27;213815;1289;138491;-84
2023/03/23 10:13:26;;;;;;;5.30;2.30;;;;;;;16.11;68.09;99591.89;213620;1289;138281;-85
2023/03/23 10:18:37;;;;;;;5.70;2.10;;;;;;;15.88;68.32;99603.93;214092;1291;139667;-82
2023/03/23 10:23:58;;;;;;;5.30;2.20;;;;;;;15.68;69.65;99614.33;213870;1289;138808;-85
2023/03/23 10:29:10;;;;;;;5.70;2.00;;;;;;;15.44;71.40;99620.70;213232;1294;139025;-85
2023/03/23 10:34:18;;;;;;;5.30;2.10;;;;;;;15.19;73.01;99620.23;214107;1294;138351;-84
2023/03/23 10:39:22;;;;;;;7.50;2.50;;;;;;;14.96;74.76;99627.21;213535;1289;138380;-84
2023/03/23 10:44:27;;;;;;;4.80;1.90;;;;;;;14.83;76.22;99624.61;214558;1288;138701;-86
2023/03/23 10:49:41;;;;;;;5.90;1.90;;;;;;;14.72;77.00;99620.63;213437;1291;139127;-86
2023/03/23 10:54:52;;;;;;;4.40;1.90;;;;;;;14.59;77.16;99623.23;213870;1289;139879;-85
2023/03/23 10:59:59;;;;;;;5.90;2.10;;;;;;;14.48;78.31;99619.48;213614;1289;139088;-85
2023/03/23 11:05:05;;;;;;;5.90;2.00;;;;;;;14.51;78.74;99625.84;213921;1289;139416;-84
2023/03/23 11:10:18;;;;;;;5.40;2.10;;;;;;;14.47;79.00;99623.07;213226;1290;139206;-84
2023/03/23 11:15:36;;;;;;;6.30;2.10;;;;;;;14.48;79.54;99617.13;214200;1292;139072;-85
2023/03/23 11:20:41;;;;;;;4.20;1.90;;;;;;;14.59;79.74;99618.02;217273;1288;139224;-88
2023/03/23 11:26:00;;;;;;;9.40;2.70;;;;;;;14.71;78.81;99606.41;214815;1289;97960;-86
2023/03/23 11:31:05;;;;;;;5.80;1.90;;;;;;;14.82;78.33;99586.72;214094;1289;139106;-88
2023/03/23 11:36:08;;;;;;;5.80;1.90;;;;;;;14.88;77.33;99590.50;214586;1291;138763;-85
2023/03/23 11:41:11;;;;;;;4.30;1.60;;;;;;;14.89;77.02;99589.66;214183;1292;139611;-86
2023/03/23 11:46:26;;;;;;;4.50;1.70;;;;;;;14.96;77.07;99584.21;214459;1291;140389;-87
2023/03/23 11:51:41;;;;;;;4.40;1.70;;;;;;;15.08;76.03;99585.58;213249;1291;139483;-85
2023/03/23 11:56:45;;;;;;;4.30;1.50;;;;;;;15.14;75.69;99588.20;214183;1294;139733;-88
2023/03/23 12:01:58;;;;;;;5.60;1.60;;;;;;;15.18;75.63;99581.88;213552;1291;139186;-85
2023/03/23 12:07:21;;;;;;;6.70;2.30;;;;;;;15.29;75.44;99582.58;214153;1289;97955;-87
2023/03/23 12:12:24;;;;;;;8.40;3.50;;;;;;;15.32;75.90;99575.86;213351;1288;138539;-90
2023/03/23 12:18:00;;;;;;;7.20;2.40;;;;;;;15.38;75.73;99572.36;214038;1289;138521;-87
2023/03/23 12:23:32;;;;;;;6.10;2.30;;;;;;;15.31;76.18;99578.66;213017;1288;139132;-88
2023/03/23 12:28:54;;;;;;;6.60;2.10;;;;;;;15.26;76.30;99582.39;213919;1289;138841;-88
2023/03/23 12:34:27;;;;;;;3.60;1.70;;;;;;;15.24;76.98;99581.83;213585;1288;138850;-87
2023/03/23 12:40:09;;;;;;;4.70;1.60;;;;;;;15.24;76.74;99582.06;213367;1291;139241;-88
2023/03/23 12:45:25;;;;;;;8.00;1.70;;;;;;;15.17;77.07;99584.10;214005;1290;139128;-85
2023/03/23 12:50:43;;;;;;;5.80;1.80;;;;;;;15.20;77.21;99582.77;213363;1288;139265;-87
2023/03/23 12:56:08;;;;;;;4.20;2.10;;;;;;;15.19;77.23;99580.97;214256;1291;97948;-88
2023/03/23 13:01:13;;;;;;;4.90;2.50;;;;;;;15.22;77.52;99583.61;214214;1293;139571;-88
2023/03/23 13:06:30;;;;;;;5.40;2.30;;;;;;;15.30;77.58;99581.07;214707;1292;138648;-89
2023/03/23 13:11:37;;;;;;;4.50;2.10;;;;;;;15.38;77.28;99575.67;213866;1288;140142;-87
2023/03/23 13:17:03;;;;;;;;;;;;;;;15.43;77.12;99580.02;214327;1289;139514;-88
2023/03/23 13:22:11;;;;;;;5.80;2.50;;;;;;;15.47;76.80;99581.59;213720;1289;125240;-89
2023/03/23 13:27:14;;;;;;;6.70;2.70;;;;;;;15.47;76.33;99580.86;214051;1293;138814;-87
2023/03/23 13:32:18;;;;;;;6.30;2.70;;;;;;;15.53;76.60;99571.70;213551;1288;139039;-90
2023/03/23 13:37:25;;;;;;;5.70;2.40;;;;;;;15.58;76.12;99563.65;214374;1292;105101;-86
2023/03/23 13:42:35;;;;;;;6.40;2.50;;;;;;;15.61;76.23;99561.23;214929;1289;139065;-87
2023/03/23 13:47:44;;;;;;;6.40;2.50;;;;;;;15.60;75.64;99550.70;214504;1288;139695;-90
2023/03/23 13:52:44;;;;;;;6.90;2.80;;;;;;;15.59;75.33;99557.14;213993;1291;138985;-88
2023/03/23 13:57:57;;;;;;;6.30;3.00;;;;;;;15.58;75.53;99558.34;214257;1292;138735;-87
2023/03/23 14:03:24;;;;;;;6.30;2.60;;;;;;;15.59;75.80;99563.39;213185;1294;139312;-86
2023/03/23 14:08:36;;;;;;;;;;;;;;;15.57;76.17;99568.05;213900;1290;138842;-88
2023/03/23 14:13:43;;;;;;;6.60;2.60;;;;;;;15.52;76.34;99557.63;213492;1291;124614;-89
2023/03/23 14:18:51;;;;;;;7.90;2.40;;;;;;;15.52;76.61;99556.20;213432;1289;140463;-88
2023/03/23 14:23:54;;;;;;;7.20;2.80;;;;;;;15.53;76.26;99564.73;213861;1289;138848;-86
2023/03/23 14:28:55;;;;;;;6.80;2.70;;;;;;;15.51;75.97;99565.09;213972;1289;139981;-88
2023/03/23 14:34:00;;;;;;;7.60;3.00;;;;;;;15.48;76.08;99563.00;213842;1289;139303;-86
2023/03/23 14:39:05;;;;;;;7.40;2.80;;;;;;;15.45;76.28;99559.92;213095;1290;139352;-87
2023/03/23 14:44:12;;;;;;;6.60;2.80;;;;;;;15.43;76.27;99552.52;214147;1289;139161;-86
2023/03/23 14:49:17;;;;;;;6.60;3.20;;;;;;;15.41;76.42;99553.20;213589;1289;139016;-89
2023/03/23 14:54:25;;;;;;;5.70;2.60;;;;;;;15.38;75.72;99552.46;214153;1289;139137;-86
2023/03/23 14:59:26;;;;;;;6.40;2.70;;;;;;;15.35;75.50;99549.86;213834;1291;138816;-89
2023/03/23 15:04:27;;;;;;;6.70;3.50;;;;;;;15.36;75.65;99540.02;214346;1289;138778;-85
2023/03/23 15:09:28;;;;;;;8.00;3.20;;;;;;;15.36;75.76;99538.73;213708;1289;139748;-88
2023/03/23 15:14:32;;;;;;;7.60;3.50;;;;;;;15.38;75.60;99547.25;214441;1289;138800;-88
2023/03/23 15:19:41;;;;;;;7.70;3.40;;;;;;;15.37;75.47;99550.52;213853;1293;139648;-92
2023/03/23 15:24:42;;;;;;;9.10;3.30;;;;;;;15.35;75.29;99536.46;214415;1289;139364;-85
2023/03/23 15:29:48;;;;;;;6.30;3.10;;;;;;;15.39;75.43;99548.09;213994;1291;140239;-87
2023/03/23 15:34:49;;;;;;;6.20;2.50;;;;;;;15.48;75.48;99544.24;214763;1291;139105;-87
2023/03/23 15:39:51;;;;;;;7.30;2.80;;;;;;;15.50;75.07;99549.58;213640;1289;140432;-89
2023/03/23 15:45:16;;;;;;;5.70;2.80;;;;;;;15.48;75.10;99562.16;214093;1292;139586;-90
2023/03/23 15:50:26;;;;;;;7.10;2.70;;;;;;;15.47;75.13;99566.92;213653;1289;138874;-89
2023/03/23 15:55:29;;;;;;;8.50;3.80;;;;;;;15.44;74.92;99573.96;214506;1291;107235;-87
2023/03/23 16:00:34;;;;;;;9.10;3.50;;;;;;;15.41;75.32;99565.79;213897;1289;140242;-87
2023/03/23 16:05:35;;;;;;;11.90;5.60;;;;;;;15.38;75.36;99568.08;214882;1294;139746;-89
2023/03/23 16:10:35;;;;;;;10.60;4.80;;;;;;;15.36;75.51;99565.76;214156;1292;308187;-88
2023/03/23 16:15:36;;;;;;;10.00;4.00;;;;;;;15.33;75.64;99566.20;214317;1289;139168;-87
2023/03/23 16:20:36;;;;;;;9.10;4.40;;;;;;;15.29;75.79;99566.04;213963;1292;140589;-89
2023/03/23 16:25:36;;;;;;;9.40;4.10;;;;;;;15.24;75.73;99569.38;214699;1292;98871;-86
2023/03/23 16:30:37;;;;;;;8.70;3.80;;;;;;;15.18;76.12;99573.78;213957;1294;139502;-89
2023/03/23 16:35:38;;;;;;;9.70;3.70;;;;;;;15.12;76.46;99580.42;214551;1294;139305;-87
2023/03/23 16:40:39;;;;;;;8.20;4.00;;;;;;;15.06;76.95;99577.93;213955;1288;139686;-86
2023/03/23 16:45:42;;;;;;;11.10;4.20;;;;;;;15.01;77.12;99586.48;214231;1291;138737;-87
2023/03/23 16:50:44;;;;;;;12.70;4.60;;;;;;;14.95;77.41;99584.33;213790;1289;140312;-87
2023/03/23 16:55:47;;;;;;;12.70;5.60;;;;;;;14.90;77.68;99589.18;214885;1294;97938;-88
2023/03/23 17:00:49;;;;;;;17.70;8.90;;;;;;;14.85;77.96;99594.98;214426;1292;140054;-86
2023/03/23 17:05:50;;;;;;;11.40;5.90;;;;;;;14.79;78.20;99609.48;215149;1289;139597;-88
2023/03/23 17:10:51;;;;;;;14.10;7.30;;;;;;;14.73;78.54;99608.27;214576;1291;139149;-89
2023/03/23 17:15:53;;;;;;;15.20;7.80;;;;;;;14.66;78.87;99605.40;215279;1289;138881;-89
2023/03/23 17:20:54;;;;;;;16.60;9.60;;;;;;;14.56;79.42;99622.49;213830;1293;139108;-90
2023/03/23 17:25:54;;;;;;;16.70;9.80;;;;;;;14.45;79.95;99627.75;214341;1294;106860;-87
2023/03/23 17:30:55;;;;;;;17.90;8.40;;;;;;;14.34;80.48;99634.83;213474;1292;139223;-88
2023/03/23 17:35:55;;;;;;;13.60;7.40;;;;;;;14.22;80.89;99636.99;214020;1291;138717;-88
2023/03/23 17:41:00;;;;;;;13.60;6.00;;;;;;;14.11;81.39;99627.84;213410;1289;140054;-89
2023/03/23 17:46:01;;;;;;;13.80;6.80;;;;;;;14.03;81.70;99615.86;214121;1288;139097;-89
2023/03/23 17:51:02;;;;;;;13.80;6.40;;;;;;;13.96;81.94;99621.42;213522;1291;140787;-90
2023/03/23 17:56:05;;;;;;;11.20;5.20;;;;;;;13.91;82.34;99640.63;214130;1289;139577;-88
2023/03/23 18:01:06;;;;;;;15.30;5.30;;;;;;;13.86;82.60;99647.34;213991;1290;138768;-90
2023/03/23 18:06:08;;;;;;;10.10;4.70;;;;;;;13.81;82.90;99646.15;214472;1294;139195;-87
2023/03/23 18:11:08;;;;;;;16.80;7.90;;;;;;;13.76;83.17;99640.93;213780;1293;139949;-87
2023/03/23 18:16:10;;;;;;;25.30;12.50;;;;;;;13.72;83.14;99649.52;213981;1289;138960;-88
2023/03/23 18:21:10;;;;;;;16.40;8.40;;;;;;;13.70;83.10;99658.08;213589;1294;139807;-89
2023/03/23 18:26:12;;;;;;;21.40;9.70;;;;;;;13.67;83.26;99658.20;214204;1289;139077;-88
2023/03/23 18:31:16;;;;;;;18.30;9.50;;;;;;;13.64;83.42;99652.88;213553;1292;140081;-89
2023/03/23 18:36:19;;;;;;;18.10;9.00;;;;;;;13.60;83.57;99655.45;214214;1294;140322;-88
2023/03/23 18:41:19;;;;;;;17.20;9.40;;;;;;;13.55;83.73;99663.50;213659;1295;140169;-89
2023/03/23 18:46:20;;;;;;;20.30;9.60;;;;;;;13.51;84.02;99668.52;214083;1289;139535;-89
2023/03/23 18:51:20;;;;;;;15.90;8.20;;;;;;;13.48;84.32;99669.67;213642;1291;139458;-87
2023/03/23 18:56:21;;;;;;;15.40;7.80;;;;;;;13.46;84.54;99653.52;214129;1289;138926;-88
2023/03/23 19:01:22;;;;;;;16.20;7.30;;;;;;;13.41;84.81;99645.20;214032;1294;139471;-89
2023/03/23 19:06:25;;;;;;;15.50;7.60;;;;;;;13.36;85.09;99632.96;214349;1294;139692;-90
2023/03/23 19:11:26;;;;;;;17.00;8.70;;;;;;;13.28;85.58;99636.29;213749;1294;140105;-90
2023/03/23 19:16:26;;;;;;;20.60;8.10;;;;;;;13.17;85.82;99644.02;214178;1294;140029;-88
2023/03/23 19:21:28;;;;;;;15.50;7.80;;;;;;;13.08;86.28;99632.49;213865;1289;140813;-88
2023/03/23 19:26:31;;;;;;;14.70;7.30;;;;;;;12.98;86.56;99632.85;214243;1294;139819;-89
2023/03/23 19:31:32;;;;;;;14.50;7.90;;;;;;;12.88;86.99;99645.10;214098;1295;140205;-89
2023/03/23 19:36:32;;;;;;;18.10;8.00;;;;;;;12.79;87.38;99653.80;214295;1295;138935;-85
2023/03/23 19:41:34;;;;;;;14.80;7.30;;;;;;;12.69;87.49;99674.63;213848;1289;139631;-88
2023/03/23 19:46:34;;;;;;;28.70;11.60;;;;;;;12.59;88.08;99673.77;214512;1291;139067;-86
2023/03/23 19:51:35;;;;;;;16.40;7.50;;;;;;;12.49;88.44;99680.27;213920;1295;139253;-88
2023/03/23 19:56:36;;;;;;;15.10;6.90;;;;;;;12.40;88.88;99687.59;214362;1294;139707;-86
2023/03/23 20:01:38;;;;;;;18.90;8.60;;;;;;;12.30;89.06;99689.08;214019;1294;138884;-89
2023/03/23 20:06:38;;;;;;;18.50;10.30;;;;;;;12.22;89.68;99697.98;214138;1289;140516;-87
2023/03/23 20:11:40;;;;;;;16.60;9.20;;;;;;;12.13;89.87;99695.98;213678;1293;139817;-90
2023/03/23 20:16:40;;;;;;;19.60;11.30;;;;;;;12.05;90.06;99696.29;214599;1289;138912;-88
2023/03/23 20:21:41;;;;;;;17.10;8.40;;;;;;;11.96;90.49;99694.29;213530;1292;139030;-88
2023/03/23 20:26:42;;;;;;;16.60;8.60;;;;;;;11.88;90.90;99699.14;213939;1295;140533;-87
2023/03/23 20:31:45;;;;;;;17.00;9.10;;;;;;;11.80;91.11;99703.45;213627;1294;138972;-87
2023/03/23 20:36:48;;;;;;;18.40;9.20;;;;;;;11.72;91.26;99707.74;213911;1295;138719;-88
2023/03/23 20:41:53;;;;;;;17.40;9.00;;;;;;;11.63;91.76;99719.04;213396;1290;139431;-89
2023/03/23 20:46:55;;;;;;;16.80;9.10;;;;;;;11.55;91.89;99722.36;214010;1293;142837;-88
2023/03/23 20:51:55;;;;;;;22.00;10.90;;;;;;;11.47;92.17;99719.33;213502;1293;139586;-89
2023/03/23 20:56:57;;;;;;;19.60;9.50;;;;;;;11.39;92.54;99719.13;213872;1289;139698;-88
2023/03/23 21:01:58;;;;;;;18.40;9.10;;;;;;;11.32;92.78;99710.80;213573;1292;139291;-90
2023/03/23 21:06:59;;;;;;;17.80;7.30;;;;;;;11.26;92.67;99712.79;213900;1295;139509;-89
2023/03/23 21:12:04;;;;;;;16.10;8.70;;;;;;;11.22;92.94;99720.98;213436;1292;139299;-88
2023/03/23 21:17:06;;;;;;;17.20;7.90;;;;;;;11.17;92.78;99722.97;213985;1293;139476;-88
2023/03/23 21:22:08;;;;;;;12.80;6.90;;;;;;;11.13;93.25;99724.48;213489;1293;140069;-88
2023/03/23 21:27:12;;;;;;;15.30;7.20;;;;;;;11.09;93.30;99726.20;213920;1289;139680;-90
2023/03/23 21:32:12;;;;;;;13.50;6.70;;;;;;;11.05;93.40;99723.86;213949;1291;139496;-90
2023/03/23 21:37:14;;;;;;;15.00;7.60;;;;;;;11.01;93.58;99723.15;214138;1293;106837;-88
2023/03/23 21:42:14;;;;;;;17.60;8.60;;;;;;;10.95;93.86;99724.19;213630;1292;139475;-89
2023/03/23 21:47:14;;;;;;;16.50;7.50;;;;;;;10.89;94.02;99720.97;214098;1294;139418;-88
2023/03/23 21:52:15;;;;;;;20.80;8.60;;;;;;;10.85;94.12;99721.85;213806;1291;139834;-88
2023/03/23 21:57:16;;;;;;;13.30;7.00;;;;;;;10.80;94.02;99720.60;214680;1294;138894;-88
2023/03/23 22:02:16;;;;;;;17.20;7.10;;;;;;;10.74;94.26;99722.73;214230;1292;139719;-87
2023/03/23 22:07:17;;;;;;;15.70;7.50;;;;;;;10.69;94.45;99726.35;215171;1289;97848;-88
2023/03/23 22:12:18;;;;;;;13.90;7.10;;;;;;;10.64;94.49;99726.43;214103;1294;139659;-87
2023/03/23 22:17:20;;;;;;;13.50;6.40;;;;;;;10.59;94.93;99732.17;214442;1292;138941;-88
2023/03/23 22:22:21;;;;;;;12.40;6.20;;;;;;;10.57;95.07;99732.34;213539;1292;139169;-88
2023/03/23 22:27:21;;;;;;;12.00;5.60;;;;;;;10.53;95.11;99732.65;214060;1292;140245;-88
2023/03/23 22:32:22;;;;;;;13.30;5.90;;;;;;;10.48;95.32;99732.24;213445;1288;138907;-89
2023/03/23 22:37:22;;;;;;;12.50;5.70;;;;;;;10.43;95.50;99729.58;214218;1289;98924;-89
2023/03/23 22:42:23;;;;;;;12.10;5.60;;;;;;;10.40;96.03;99725.95;213699;1295;139401;-88
2023/03/23 22:47:23;;;;;;;14.30;6.20;;;;;;;10.36;95.69;99724.15;214864;1289;139183;-87
2023/03/23 22:52:24;;;;;;;11.40;5.30;;;;;;;10.31;96.09;99722.58;213910;1289;139458;-89
2023/03/23 22:57:25;;;;;;;12.40;5.90;;;;;;;10.25;96.04;99723.36;214040;1291;138975;-89
2023/03/23 23:02:26;;;;;;;12.40;5.60;;;;;;;10.18;96.06;99721.15;213479;1294;139964;-89
2023/03/23 23:07:26;;;;;;;11.10;5.30;;;;;;;10.07;96.08;99721.12;214073;1292;97946;-90
2023/03/23 23:12:30;;;;;;;17.20;6.50;;;;;;;9.95;96.34;99723.20;213524;1289;139029;-89